sensor_id;sensor_type;location;lat;lon;timestamp;P1;durP1;ratioP1;P2;durP2;ratioP2
11539;SDS011;5826;54.756;9.192;2022-12-07T00:01:33;5.73;;;4.57;;
11539;SDS011;5826;54.756;9.192;2022-12-07T00:04:01;5.33;;;4.40;;
11539;SDS011;5826;54.756;9.192;2022-12-07T00:06:31;5.83;;;4.40;;
11539;SDS011;5826;54.756;9.192;2022-12-07T00:08:58;5.77;;;4.50;;
11539;SDS011;5826;54.756;9.192;2022-12-07T00:11:24;4.43;;;3.93;;
11539;SDS011;5826;54.756;9.192;2022-12-07T00:13:53;4.77;;;4.10;;
11539;SDS011;5826;54.756;9.192;2022-12-07T00:16:21;5.27;;;4.57;;
11539;SDS011;5826;54.756;9.192;2022-12-07T00:18:48;6.17;;;4.60;;
11539;SDS011;5826;54.756;9.192;2022-12-07T00:21:15;5.53;;;4.57;;
11539;SDS011;5826;54.756;9.192;2022-12-07T00:23:43;4.83;;;4.10;;
11539;SDS011;5826;54.756;9.192;2022-12-07T00:28:41;5.53;;;4.63;;
11539;SDS011;5826;54.756;9.192;2022-12-07T00:31:11;5.37;;;4.87;;
11539;SDS011;5826;54.756;9.192;2022-12-07T00:33:38;5.33;;;4.70;;
11539;SDS011;5826;54.756;9.192;2022-12-07T00:36:08;5.70;;;4.73;;
11539;SDS011;5826;54.756;9.192;2022-12-07T00:38:35;6.00;;;5.23;;
11539;SDS011;5826;54.756;9.192;2022-12-07T00:41:03;5.60;;;4.80;;
11539;SDS011;5826;54.756;9.192;2022-12-07T00:43:30;5.97;;;4.67;;
11539;SDS011;5826;54.756;9.192;2022-12-07T00:45:56;5.40;;;4.50;;
11539;SDS011;5826;54.756;9.192;2022-12-07T00:48:22;5.87;;;5.17;;
11539;SDS011;5826;54.756;9.192;2022-12-07T00:50:48;6.23;;;5.43;;
11539;SDS011;5826;54.756;9.192;2022-12-07T00:53:14;7.23;;;5.00;;
11539;SDS011;5826;54.756;9.192;2022-12-07T00:55:41;5.87;;;5.10;;
11539;SDS011;5826;54.756;9.192;2022-12-07T00:58:07;6.37;;;5.10;;
11539;SDS011;5826;54.756;9.192;2022-12-07T01:00:34;6.07;;;5.03;;
11539;SDS011;5826;54.756;9.192;2022-12-07T01:03:01;6.27;;;4.90;;
11539;SDS011;5826;54.756;9.192;2022-12-07T01:05:27;5.00;;;4.50;;
11539;SDS011;5826;54.756;9.192;2022-12-07T01:07:53;6.03;;;4.50;;
11539;SDS011;5826;54.756;9.192;2022-12-07T01:10:18;5.97;;;4.90;;
11539;SDS011;5826;54.756;9.192;2022-12-07T01:12:44;5.97;;;4.77;;
11539;SDS011;5826;54.756;9.192;2022-12-07T01:15:09;6.27;;;5.20;;
11539;SDS011;5826;54.756;9.192;2022-12-07T01:17:35;7.03;;;5.40;;
11539;SDS011;5826;54.756;9.192;2022-12-07T01:20:01;6.07;;;5.10;;
11539;SDS011;5826;54.756;9.192;2022-12-07T01:22:26;5.97;;;4.90;;
11539;SDS011;5826;54.756;9.192;2022-12-07T01:24:52;7.83;;;5.53;;
11539;SDS011;5826;54.756;9.192;2022-12-07T01:27:17;7.27;;;5.50;;
11539;SDS011;5826;54.756;9.192;2022-12-07T01:29:43;7.30;;;5.47;;
11539;SDS011;5826;54.756;9.192;2022-12-07T01:32:08;5.67;;;4.90;;
11539;SDS011;5826;54.756;9.192;2022-12-07T01:34:35;5.90;;;5.07;;
11539;SDS011;5826;54.756;9.192;2022-12-07T01:37:00;8.07;;;5.67;;
11539;SDS011;5826;54.756;9.192;2022-12-07T01:39:26;6.87;;;5.63;;
11539;SDS011;5826;54.756;9.192;2022-12-07T01:41:52;6.80;;;5.50;;
11539;SDS011;5826;54.756;9.192;2022-12-07T01:44:27;8.70;;;6.00;;
11539;SDS011;5826;54.756;9.192;2022-12-07T01:47:01;6.73;;;5.00;;
11539;SDS011;5826;54.756;9.192;2022-12-07T01:49:31;7.23;;;5.87;;
11539;SDS011;5826;54.756;9.192;2022-12-07T01:54:49;8.00;;;5.60;;
11539;SDS011;5826;54.756;9.192;2022-12-07T01:57:18;6.37;;;5.20;;
11539;SDS011;5826;54.756;9.192;2022-12-07T01:59:45;6.57;;;5.43;;
11539;SDS011;5826;54.756;9.192;2022-12-07T02:02:15;7.33;;;5.67;;
11539;SDS011;5826;54.756;9.192;2022-12-07T02:04:44;8.13;;;5.77;;
11539;SDS011;5826;54.756;9.192;2022-12-07T02:07:10;7.83;;;5.70;;
11539;SDS011;5826;54.756;9.192;2022-12-07T02:09:36;7.60;;;6.10;;
11539;SDS011;5826;54.756;9.192;2022-12-07T02:12:02;7.13;;;5.60;;
11539;SDS011;5826;54.756;9.192;2022-12-07T02:14:28;7.37;;;5.93;;
11539;SDS011;5826;54.756;9.192;2022-12-07T02:17:03;7.53;;;6.03;;
11539;SDS011;5826;54.756;9.192;2022-12-07T02:19:44;7.97;;;6.20;;
11539;SDS011;5826;54.756;9.192;2022-12-07T02:22:44;9.70;;;7.20;;
11539;SDS011;5826;54.756;9.192;2022-12-07T02:28:29;7.87;;;6.50;;
11539;SDS011;5826;54.756;9.192;2022-12-07T02:31:02;7.43;;;6.27;;
11539;SDS011;5826;54.756;9.192;2022-12-07T02:33:37;8.03;;;6.27;;
11539;SDS011;5826;54.756;9.192;2022-12-07T02:36:13;8.90;;;6.47;;
11539;SDS011;5826;54.756;9.192;2022-12-07T02:38:46;7.47;;;5.83;;
11539;SDS011;5826;54.756;9.192;2022-12-07T02:43:46;6.80;;;5.53;;
11539;SDS011;5826;54.756;9.192;2022-12-07T02:46:21;10.37;;;6.40;;
11539;SDS011;5826;54.756;9.192;2022-12-07T02:48:53;7.50;;;5.90;;
11539;SDS011;5826;54.756;9.192;2022-12-07T02:51:20;7.87;;;6.40;;
11539;SDS011;5826;54.756;9.192;2022-12-07T02:53:46;6.60;;;5.43;;
11539;SDS011;5826;54.756;9.192;2022-12-07T02:59:07;7.83;;;6.10;;
11539;SDS011;5826;54.756;9.192;2022-12-07T03:01:44;7.77;;;6.00;;
11539;SDS011;5826;54.756;9.192;2022-12-07T03:07:49;9.83;;;7.00;;
11539;SDS011;5826;54.756;9.192;2022-12-07T03:10:48;8.90;;;7.20;;
11539;SDS011;5826;54.756;9.192;2022-12-07T03:13:23;8.63;;;6.93;;
11539;SDS011;5826;54.756;9.192;2022-12-07T03:16:16;8.87;;;7.17;;
11539;SDS011;5826;54.756;9.192;2022-12-07T03:18:47;8.47;;;6.77;;
11539;SDS011;5826;54.756;9.192;2022-12-07T03:21:21;8.40;;;6.83;;
11539;SDS011;5826;54.756;9.192;2022-12-07T03:23:51;7.27;;;5.87;;
11539;SDS011;5826;54.756;9.192;2022-12-07T03:26:21;7.63;;;6.50;;
11539;SDS011;5826;54.756;9.192;2022-12-07T03:28:51;8.63;;;6.93;;
11539;SDS011;5826;54.756;9.192;2022-12-07T03:31:24;7.33;;;6.20;;
11539;SDS011;5826;54.756;9.192;2022-12-07T03:34:15;8.13;;;6.90;;
11539;SDS011;5826;54.756;9.192;2022-12-07T03:36:57;8.13;;;6.60;;
11539;SDS011;5826;54.756;9.192;2022-12-07T03:42:23;8.27;;;6.37;;
11539;SDS011;5826;54.756;9.192;2022-12-07T03:44:49;9.13;;;6.57;;
11539;SDS011;5826;54.756;9.192;2022-12-07T03:49:59;8.00;;;6.50;;
11539;SDS011;5826;54.756;9.192;2022-12-07T03:52:39;8.53;;;6.37;;
11539;SDS011;5826;54.756;9.192;2022-12-07T03:55:16;8.87;;;6.80;;
11539;SDS011;5826;54.756;9.192;2022-12-07T03:57:45;7.50;;;6.50;;
11539;SDS011;5826;54.756;9.192;2022-12-07T04:00:14;7.60;;;6.60;;
11539;SDS011;5826;54.756;9.192;2022-12-07T04:02:40;6.73;;;5.70;;
11539;SDS011;5826;54.756;9.192;2022-12-07T04:05:07;8.03;;;6.10;;
11539;SDS011;5826;54.756;9.192;2022-12-07T04:07:33;8.40;;;6.43;;
11539;SDS011;5826;54.756;9.192;2022-12-07T04:09:59;7.83;;;6.50;;
11539;SDS011;5826;54.756;9.192;2022-12-07T04:12:24;7.90;;;6.13;;
11539;SDS011;5826;54.756;9.192;2022-12-07T04:14:50;7.93;;;5.73;;
11539;SDS011;5826;54.756;9.192;2022-12-07T04:17:15;7.30;;;5.97;;
11539;SDS011;5826;54.756;9.192;2022-12-07T04:19:41;8.23;;;5.93;;
11539;SDS011;5826;54.756;9.192;2022-12-07T04:22:06;8.60;;;6.30;;
11539;SDS011;5826;54.756;9.192;2022-12-07T04:24:33;8.20;;;6.43;;
11539;SDS011;5826;54.756;9.192;2022-12-07T04:26:59;6.40;;;5.50;;
11539;SDS011;5826;54.756;9.192;2022-12-07T04:29:25;8.13;;;6.40;;
11539;SDS011;5826;54.756;9.192;2022-12-07T04:31:51;8.23;;;6.23;;
11539;SDS011;5826;54.756;9.192;2022-12-07T04:34:17;8.77;;;6.40;;
11539;SDS011;5826;54.756;9.192;2022-12-07T04:36:43;7.97;;;6.43;;
11539;SDS011;5826;54.756;9.192;2022-12-07T04:39:21;8.13;;;6.10;;
11539;SDS011;5826;54.756;9.192;2022-12-07T04:41:48;6.13;;;5.03;;
11539;SDS011;5826;54.756;9.192;2022-12-07T04:44:14;7.07;;;5.80;;
11539;SDS011;5826;54.756;9.192;2022-12-07T04:46:41;7.07;;;5.77;;
11539;SDS011;5826;54.756;9.192;2022-12-07T04:49:07;7.20;;;5.70;;
11539;SDS011;5826;54.756;9.192;2022-12-07T04:51:32;7.23;;;5.80;;
11539;SDS011;5826;54.756;9.192;2022-12-07T04:53:58;6.50;;;5.37;;
11539;SDS011;5826;54.756;9.192;2022-12-07T04:56:23;7.20;;;5.10;;
11539;SDS011;5826;54.756;9.192;2022-12-07T04:58:50;6.70;;;5.53;;
11539;SDS011;5826;54.756;9.192;2022-12-07T05:01:18;7.07;;;5.33;;
11539;SDS011;5826;54.756;9.192;2022-12-07T05:03:44;6.63;;;5.07;;
11539;SDS011;5826;54.756;9.192;2022-12-07T05:06:10;7.87;;;5.30;;
11539;SDS011;5826;54.756;9.192;2022-12-07T05:08:36;7.13;;;5.27;;
11539;SDS011;5826;54.756;9.192;2022-12-07T05:11:02;5.73;;;4.60;;
11539;SDS011;5826;54.756;9.192;2022-12-07T05:13:29;6.90;;;4.90;;
11539;SDS011;5826;54.756;9.192;2022-12-07T05:15:55;5.13;;;4.30;;
11539;SDS011;5826;54.756;9.192;2022-12-07T05:18:20;6.77;;;4.87;;
11539;SDS011;5826;54.756;9.192;2022-12-07T05:20:46;5.77;;;4.23;;
11539;SDS011;5826;54.756;9.192;2022-12-07T05:23:12;6.17;;;4.63;;
11539;SDS011;5826;54.756;9.192;2022-12-07T05:25:38;6.07;;;4.40;;
11539;SDS011;5826;54.756;9.192;2022-12-07T05:28:04;6.13;;;3.90;;
11539;SDS011;5826;54.756;9.192;2022-12-07T05:30:30;7.83;;;5.57;;
11539;SDS011;5826;54.756;9.192;2022-12-07T05:32:55;6.73;;;4.57;;
11539;SDS011;5826;54.756;9.192;2022-12-07T05:35:21;5.90;;;3.90;;
11539;SDS011;5826;54.756;9.192;2022-12-07T05:37:46;7.70;;;4.37;;
11539;SDS011;5826;54.756;9.192;2022-12-07T05:40:12;9.07;;;5.00;;
11539;SDS011;5826;54.756;9.192;2022-12-07T05:42:39;6.87;;;4.17;;
11539;SDS011;5826;54.756;9.192;2022-12-07T05:45:05;6.87;;;3.93;;
11539;SDS011;5826;54.756;9.192;2022-12-07T05:47:31;7.80;;;3.30;;
11539;SDS011;5826;54.756;9.192;2022-12-07T05:49:57;6.40;;;3.03;;
11539;SDS011;5826;54.756;9.192;2022-12-07T05:52:23;5.47;;;3.00;;
11539;SDS011;5826;54.756;9.192;2022-12-07T05:54:49;5.30;;;2.90;;
11539;SDS011;5826;54.756;9.192;2022-12-07T05:57:14;3.63;;;2.50;;
11539;SDS011;5826;54.756;9.192;2022-12-07T05:59:40;4.60;;;2.40;;
11539;SDS011;5826;54.756;9.192;2022-12-07T06:02:06;4.23;;;2.10;;
11539;SDS011;5826;54.756;9.192;2022-12-07T06:04:34;4.83;;;2.07;;
11539;SDS011;5826;54.756;9.192;2022-12-07T06:07:04;3.10;;;2.00;;
11539;SDS011;5826;54.756;9.192;2022-12-07T06:09:30;5.43;;;1.60;;
11539;SDS011;5826;54.756;9.192;2022-12-07T06:11:56;2.77;;;1.80;;
11539;SDS011;5826;54.756;9.192;2022-12-07T06:14:41;5.83;;;2.07;;
11539;SDS011;5826;54.756;9.192;2022-12-07T06:17:06;5.27;;;1.70;;
11539;SDS011;5826;54.756;9.192;2022-12-07T06:19:32;2.73;;;1.30;;
11539;SDS011;5826;54.756;9.192;2022-12-07T06:21:58;5.63;;;1.90;;
11539;SDS011;5826;54.756;9.192;2022-12-07T06:24:24;3.40;;;1.50;;
11539;SDS011;5826;54.756;9.192;2022-12-07T06:26:50;3.20;;;1.40;;
11539;SDS011;5826;54.756;9.192;2022-12-07T06:29:16;2.83;;;1.30;;
11539;SDS011;5826;54.756;9.192;2022-12-07T06:31:42;4.03;;;1.20;;
11539;SDS011;5826;54.756;9.192;2022-12-07T06:34:09;4.77;;;1.37;;
11539;SDS011;5826;54.756;9.192;2022-12-07T06:36:36;3.80;;;0.93;;
11539;SDS011;5826;54.756;9.192;2022-12-07T06:39:02;3.67;;;1.10;;
11539;SDS011;5826;54.756;9.192;2022-12-07T06:41:28;3.63;;;0.97;;
11539;SDS011;5826;54.756;9.192;2022-12-07T06:43:54;4.37;;;0.90;;
11539;SDS011;5826;54.756;9.192;2022-12-07T06:46:19;2.97;;;1.07;;
11539;SDS011;5826;54.756;9.192;2022-12-07T06:48:45;3.60;;;1.10;;
11539;SDS011;5826;54.756;9.192;2022-12-07T06:51:11;4.03;;;1.23;;
11539;SDS011;5826;54.756;9.192;2022-12-07T06:53:36;2.53;;;0.80;;
11539;SDS011;5826;54.756;9.192;2022-12-07T06:56:02;6.07;;;1.20;;
11539;SDS011;5826;54.756;9.192;2022-12-07T06:58:29;3.23;;;0.90;;
11539;SDS011;5826;54.756;9.192;2022-12-07T07:00:54;3.67;;;0.90;;
11539;SDS011;5826;54.756;9.192;2022-12-07T07:03:20;3.67;;;0.90;;
11539;SDS011;5826;54.756;9.192;2022-12-07T07:05:45;2.83;;;0.90;;
11539;SDS011;5826;54.756;9.192;2022-12-07T07:08:11;2.87;;;0.90;;
11539;SDS011;5826;54.756;9.192;2022-12-07T07:10:37;2.97;;;0.90;;
11539;SDS011;5826;54.756;9.192;2022-12-07T07:13:02;3.33;;;0.97;;
11539;SDS011;5826;54.756;9.192;2022-12-07T07:15:28;3.20;;;0.80;;
11539;SDS011;5826;54.756;9.192;2022-12-07T07:17:54;4.00;;;1.40;;
11539;SDS011;5826;54.756;9.192;2022-12-07T07:20:20;2.13;;;0.80;;
11539;SDS011;5826;54.756;9.192;2022-12-07T07:22:45;2.50;;;1.03;;
11539;SDS011;5826;54.756;9.192;2022-12-07T07:25:11;2.93;;;1.20;;
11539;SDS011;5826;54.756;9.192;2022-12-07T07:27:36;4.47;;;0.93;;
11539;SDS011;5826;54.756;9.192;2022-12-07T07:30:02;3.77;;;0.97;;
11539;SDS011;5826;54.756;9.192;2022-12-07T07:32:28;4.30;;;1.10;;
11539;SDS011;5826;54.756;9.192;2022-12-07T07:34:54;1.50;;;0.80;;
11539;SDS011;5826;54.756;9.192;2022-12-07T07:37:19;3.67;;;1.03;;
11539;SDS011;5826;54.756;9.192;2022-12-07T07:39:45;4.33;;;1.00;;
11539;SDS011;5826;54.756;9.192;2022-12-07T07:42:11;2.40;;;1.03;;
11539;SDS011;5826;54.756;9.192;2022-12-07T07:44:36;3.57;;;1.00;;
11539;SDS011;5826;54.756;9.192;2022-12-07T07:47:02;2.50;;;0.83;;
11539;SDS011;5826;54.756;9.192;2022-12-07T07:49:27;1.47;;;0.90;;
11539;SDS011;5826;54.756;9.192;2022-12-07T07:51:53;3.33;;;1.10;;
11539;SDS011;5826;54.756;9.192;2022-12-07T07:54:18;3.03;;;0.90;;
11539;SDS011;5826;54.756;9.192;2022-12-07T07:56:44;4.10;;;0.80;;
11539;SDS011;5826;54.756;9.192;2022-12-07T07:59:09;2.57;;;0.90;;
11539;SDS011;5826;54.756;9.192;2022-12-07T08:01:35;3.30;;;0.93;;
11539;SDS011;5826;54.756;9.192;2022-12-07T08:04:00;1.67;;;0.80;;
11539;SDS011;5826;54.756;9.192;2022-12-07T08:06:26;2.73;;;1.00;;
11539;SDS011;5826;54.756;9.192;2022-12-07T08:08:51;2.07;;;0.80;;
11539;SDS011;5826;54.756;9.192;2022-12-07T08:11:17;1.90;;;0.70;;
11539;SDS011;5826;54.756;9.192;2022-12-07T08:13:45;2.13;;;0.70;;
11539;SDS011;5826;54.756;9.192;2022-12-07T08:16:14;1.40;;;0.67;;
11539;SDS011;5826;54.756;9.192;2022-12-07T08:18:40;3.63;;;0.70;;
11539;SDS011;5826;54.756;9.192;2022-12-07T08:21:07;4.10;;;0.80;;
11539;SDS011;5826;54.756;9.192;2022-12-07T08:23:36;3.67;;;0.87;;
11539;SDS011;5826;54.756;9.192;2022-12-07T08:26:12;3.87;;;1.10;;
11539;SDS011;5826;54.756;9.192;2022-12-07T08:28:39;2.13;;;0.80;;
11539;SDS011;5826;54.756;9.192;2022-12-07T08:31:07;1.10;;;0.90;;
11539;SDS011;5826;54.756;9.192;2022-12-07T08:33:35;1.80;;;0.70;;
11539;SDS011;5826;54.756;9.192;2022-12-07T08:36:02;2.07;;;0.90;;
11539;SDS011;5826;54.756;9.192;2022-12-07T08:38:30;3.50;;;0.77;;
11539;SDS011;5826;54.756;9.192;2022-12-07T08:40:55;2.00;;;0.73;;
11539;SDS011;5826;54.756;9.192;2022-12-07T08:43:22;1.10;;;0.70;;
11539;SDS011;5826;54.756;9.192;2022-12-07T08:45:48;1.23;;;0.70;;
11539;SDS011;5826;54.756;9.192;2022-12-07T08:48:27;1.03;;;0.70;;
11539;SDS011;5826;54.756;9.192;2022-12-07T08:50:53;1.60;;;0.60;;
11539;SDS011;5826;54.756;9.192;2022-12-07T08:53:18;2.33;;;0.83;;
11539;SDS011;5826;54.756;9.192;2022-12-07T08:55:44;4.60;;;1.00;;
11539;SDS011;5826;54.756;9.192;2022-12-07T08:58:11;2.33;;;0.60;;
11539;SDS011;5826;54.756;9.192;2022-12-07T09:00:38;1.80;;;0.90;;
11539;SDS011;5826;54.756;9.192;2022-12-07T09:03:03;1.30;;;0.80;;
11539;SDS011;5826;54.756;9.192;2022-12-07T09:05:29;1.33;;;0.50;;
11539;SDS011;5826;54.756;9.192;2022-12-07T09:07:55;1.30;;;0.80;;
11539;SDS011;5826;54.756;9.192;2022-12-07T09:10:24;1.60;;;0.77;;
11539;SDS011;5826;54.756;9.192;2022-12-07T09:12:50;2.00;;;0.73;;
11539;SDS011;5826;54.756;9.192;2022-12-07T09:15:16;1.30;;;0.70;;
11539;SDS011;5826;54.756;9.192;2022-12-07T09:17:42;1.00;;;0.70;;
11539;SDS011;5826;54.756;9.192;2022-12-07T09:20:07;1.43;;;0.80;;
11539;SDS011;5826;54.756;9.192;2022-12-07T09:22:33;1.30;;;0.60;;
11539;SDS011;5826;54.756;9.192;2022-12-07T09:24:59;1.40;;;0.67;;
11539;SDS011;5826;54.756;9.192;2022-12-07T09:27:25;2.83;;;1.00;;
11539;SDS011;5826;54.756;9.192;2022-12-07T09:29:51;2.30;;;0.77;;
11539;SDS011;5826;54.756;9.192;2022-12-07T09:32:17;1.70;;;0.80;;
11539;SDS011;5826;54.756;9.192;2022-12-07T09:34:43;1.77;;;0.90;;
11539;SDS011;5826;54.756;9.192;2022-12-07T09:37:09;1.57;;;0.70;;
11539;SDS011;5826;54.756;9.192;2022-12-07T09:39:34;1.60;;;1.00;;
11539;SDS011;5826;54.756;9.192;2022-12-07T09:42:03;2.80;;;0.97;;
11539;SDS011;5826;54.756;9.192;2022-12-07T09:44:29;1.90;;;0.83;;
11539;SDS011;5826;54.756;9.192;2022-12-07T09:46:55;3.83;;;1.20;;
11539;SDS011;5826;54.756;9.192;2022-12-07T09:49:22;1.17;;;0.70;;
11539;SDS011;5826;54.756;9.192;2022-12-07T09:54:50;4.80;;;1.13;;
11539;SDS011;5826;54.756;9.192;2022-12-07T09:57:16;1.20;;;0.53;;
11539;SDS011;5826;54.756;9.192;2022-12-07T09:59:45;1.40;;;0.70;;
11539;SDS011;5826;54.756;9.192;2022-12-07T10:05:05;1.23;;;0.70;;
11539;SDS011;5826;54.756;9.192;2022-12-07T10:07:32;1.03;;;0.70;;
11539;SDS011;5826;54.756;9.192;2022-12-07T10:09:57;1.53;;;0.80;;
11539;SDS011;5826;54.756;9.192;2022-12-07T10:12:23;3.13;;;0.67;;
11539;SDS011;5826;54.756;9.192;2022-12-07T10:14:56;1.37;;;0.70;;
11539;SDS011;5826;54.756;9.192;2022-12-07T10:20:15;5.30;;;0.90;;
11539;SDS011;5826;54.756;9.192;2022-12-07T10:23:00;1.63;;;0.73;;
11539;SDS011;5826;54.756;9.192;2022-12-07T10:25:32;1.00;;;0.60;;
11539;SDS011;5826;54.756;9.192;2022-12-07T10:28:00;1.10;;;0.70;;
11539;SDS011;5826;54.756;9.192;2022-12-07T10:30:32;2.00;;;0.70;;
11539;SDS011;5826;54.756;9.192;2022-12-07T10:32:59;1.33;;;0.63;;
11539;SDS011;5826;54.756;9.192;2022-12-07T10:35:26;1.07;;;0.60;;
11539;SDS011;5826;54.756;9.192;2022-12-07T10:37:53;1.77;;;0.60;;
11539;SDS011;5826;54.756;9.192;2022-12-07T10:40:54;1.57;;;0.70;;
11539;SDS011;5826;54.756;9.192;2022-12-07T10:43:27;1.53;;;0.70;;
11539;SDS011;5826;54.756;9.192;2022-12-07T10:48:59;1.73;;;0.60;;
11539;SDS011;5826;54.756;9.192;2022-12-07T10:54:33;0.97;;;0.60;;
11539;SDS011;5826;54.756;9.192;2022-12-07T11:00:00;1.70;;;0.60;;
11539;SDS011;5826;54.756;9.192;2022-12-07T11:02:43;1.80;;;0.60;;
11539;SDS011;5826;54.756;9.192;2022-12-07T11:05:17;1.43;;;0.60;;
11539;SDS011;5826;54.756;9.192;2022-12-07T11:13:40;2.23;;;0.80;;
11539;SDS011;5826;54.756;9.192;2022-12-07T11:16:16;1.80;;;0.70;;
11539;SDS011;5826;54.756;9.192;2022-12-07T11:18:51;3.03;;;0.63;;
11539;SDS011;5826;54.756;9.192;2022-12-07T11:21:30;1.27;;;0.60;;
11539;SDS011;5826;54.756;9.192;2022-12-07T11:24:14;1.03;;;0.50;;
11539;SDS011;5826;54.756;9.192;2022-12-07T11:29:26;2.10;;;0.70;;
11539;SDS011;5826;54.756;9.192;2022-12-07T11:35:05;0.97;;;0.60;;
11539;SDS011;5826;54.756;9.192;2022-12-07T11:37:39;2.23;;;0.60;;
11539;SDS011;5826;54.756;9.192;2022-12-07T11:42:43;1.77;;;0.60;;
11539;SDS011;5826;54.756;9.192;2022-12-07T11:45:18;2.37;;;0.70;;
11539;SDS011;5826;54.756;9.192;2022-12-07T11:55:57;2.53;;;0.70;;
11539;SDS011;5826;54.756;9.192;2022-12-07T12:03:40;1.53;;;0.60;;
11539;SDS011;5826;54.756;9.192;2022-12-07T12:06:10;0.97;;;0.60;;
11539;SDS011;5826;54.756;9.192;2022-12-07T12:08:38;2.07;;;0.70;;
11539;SDS011;5826;54.756;9.192;2022-12-07T12:22:42;0.67;;;0.60;;
11539;SDS011;5826;54.756;9.192;2022-12-07T12:25:22;1.37;;;0.60;;
11539;SDS011;5826;54.756;9.192;2022-12-07T12:27:55;2.77;;;0.83;;
11539;SDS011;5826;54.756;9.192;2022-12-07T12:33:05;2.07;;;0.80;;
11539;SDS011;5826;54.756;9.192;2022-12-07T12:35:40;1.43;;;0.80;;
11539;SDS011;5826;54.756;9.192;2022-12-07T12:40:58;1.50;;;0.60;;
11539;SDS011;5826;54.756;9.192;2022-12-07T12:43:46;1.37;;;0.60;;
11539;SDS011;5826;54.756;9.192;2022-12-07T12:51:49;1.33;;;0.70;;
11539;SDS011;5826;54.756;9.192;2022-12-07T12:56:47;1.37;;;0.77;;
11539;SDS011;5826;54.756;9.192;2022-12-07T12:59:38;3.00;;;0.80;;
11539;SDS011;5826;54.756;9.192;2022-12-07T13:02:14;1.70;;;0.83;;
11539;SDS011;5826;54.756;9.192;2022-12-07T13:20:58;1.10;;;0.60;;
11539;SDS011;5826;54.756;9.192;2022-12-07T13:23:31;2.10;;;0.60;;
11539;SDS011;5826;54.756;9.192;2022-12-07T13:26:02;1.30;;;0.70;;
11539;SDS011;5826;54.756;9.192;2022-12-07T13:29:30;1.17;;;0.80;;
11539;SDS011;5826;54.756;9.192;2022-12-07T13:31:39;2.50;;;0.90;;
11539;SDS011;5826;54.756;9.192;2022-12-07T13:37:12;1.60;;;0.87;;
11539;SDS011;5826;54.756;9.192;2022-12-07T13:39:47;1.67;;;0.73;;
11539;SDS011;5826;54.756;9.192;2022-12-07T13:44:56;1.70;;;0.90;;
11539;SDS011;5826;54.756;9.192;2022-12-07T13:47:41;2.20;;;1.40;;
11539;SDS011;5826;54.756;9.192;2022-12-07T13:50:25;1.30;;;0.77;;
11539;SDS011;5826;54.756;9.192;2022-12-07T13:52:55;1.67;;;0.97;;
11539;SDS011;5826;54.756;9.192;2022-12-07T13:55:22;1.43;;;0.70;;
11539;SDS011;5826;54.756;9.192;2022-12-07T13:57:48;1.30;;;0.77;;
11539;SDS011;5826;54.756;9.192;2022-12-07T14:00:21;1.23;;;0.70;;
11539;SDS011;5826;54.756;9.192;2022-12-07T14:02:56;0.77;;;0.70;;
11539;SDS011;5826;54.756;9.192;2022-12-07T14:07:56;1.60;;;0.80;;
11539;SDS011;5826;54.756;9.192;2022-12-07T14:12:59;2.30;;;0.70;;
11539;SDS011;5826;54.756;9.192;2022-12-07T14:15:27;1.17;;;0.57;;
11539;SDS011;5826;54.756;9.192;2022-12-07T14:17:58;0.87;;;0.50;;
11539;SDS011;5826;54.756;9.192;2022-12-07T14:20:35;1.27;;;0.67;;
11539;SDS011;5826;54.756;9.192;2022-12-07T14:23:03;1.50;;;0.67;;
11539;SDS011;5826;54.756;9.192;2022-12-07T14:25:45;1.67;;;0.63;;
11539;SDS011;5826;54.756;9.192;2022-12-07T14:28:28;3.53;;;1.00;;
11539;SDS011;5826;54.756;9.192;2022-12-07T14:31:01;1.73;;;1.10;;
11539;SDS011;5826;54.756;9.192;2022-12-07T14:33:27;1.30;;;0.80;;
11539;SDS011;5826;54.756;9.192;2022-12-07T14:35:53;1.30;;;0.90;;
11539;SDS011;5826;54.756;9.192;2022-12-07T14:38:20;1.00;;;0.70;;
11539;SDS011;5826;54.756;9.192;2022-12-07T14:40:46;1.20;;;0.80;;
11539;SDS011;5826;54.756;9.192;2022-12-07T14:43:14;1.53;;;0.70;;
11539;SDS011;5826;54.756;9.192;2022-12-07T14:45:41;0.90;;;0.70;;
11539;SDS011;5826;54.756;9.192;2022-12-07T14:48:07;1.67;;;0.80;;
11539;SDS011;5826;54.756;9.192;2022-12-07T14:50:37;1.70;;;0.83;;
11539;SDS011;5826;54.756;9.192;2022-12-07T14:53:12;1.83;;;0.90;;
11539;SDS011;5826;54.756;9.192;2022-12-07T14:55:40;2.20;;;1.00;;
11539;SDS011;5826;54.756;9.192;2022-12-07T14:58:06;1.27;;;0.83;;
11539;SDS011;5826;54.756;9.192;2022-12-07T15:00:38;1.20;;;0.80;;
11539;SDS011;5826;54.756;9.192;2022-12-07T15:03:03;1.10;;;0.87;;
11539;SDS011;5826;54.756;9.192;2022-12-07T15:05:29;3.83;;;1.20;;
11539;SDS011;5826;54.756;9.192;2022-12-07T15:07:54;1.27;;;1.00;;
11539;SDS011;5826;54.756;9.192;2022-12-07T15:10:21;3.07;;;1.10;;
11539;SDS011;5826;54.756;9.192;2022-12-07T15:12:49;3.00;;;1.47;;
11539;SDS011;5826;54.756;9.192;2022-12-07T15:15:15;2.77;;;1.63;;
11539;SDS011;5826;54.756;9.192;2022-12-07T15:17:41;2.37;;;1.70;;
11539;SDS011;5826;54.756;9.192;2022-12-07T15:20:09;4.27;;;2.50;;
11539;SDS011;5826;54.756;9.192;2022-12-07T15:22:37;3.80;;;2.50;;
11539;SDS011;5826;54.756;9.192;2022-12-07T15:25:02;4.73;;;2.90;;
11539;SDS011;5826;54.756;9.192;2022-12-07T15:27:30;7.23;;;3.80;;
11539;SDS011;5826;54.756;9.192;2022-12-07T15:29:56;5.40;;;3.47;;
11539;SDS011;5826;54.756;9.192;2022-12-07T15:32:21;5.00;;;3.40;;
11539;SDS011;5826;54.756;9.192;2022-12-07T15:34:48;5.30;;;3.37;;
11539;SDS011;5826;54.756;9.192;2022-12-07T15:37:14;5.03;;;3.37;;
11539;SDS011;5826;54.756;9.192;2022-12-07T15:39:40;4.77;;;3.30;;
11539;SDS011;5826;54.756;9.192;2022-12-07T15:42:06;8.10;;;5.27;;
11539;SDS011;5826;54.756;9.192;2022-12-07T15:44:31;16.87;;;10.23;;
11539;SDS011;5826;54.756;9.192;2022-12-07T15:47:16;12.37;;;7.87;;
11539;SDS011;5826;54.756;9.192;2022-12-07T15:49:42;8.73;;;6.83;;
11539;SDS011;5826;54.756;9.192;2022-12-07T15:52:08;7.83;;;5.87;;
11539;SDS011;5826;54.756;9.192;2022-12-07T15:54:33;7.10;;;5.40;;
11539;SDS011;5826;54.756;9.192;2022-12-07T15:56:59;9.37;;;5.70;;
11539;SDS011;5826;54.756;9.192;2022-12-07T15:59:25;8.10;;;5.33;;
11539;SDS011;5826;54.756;9.192;2022-12-07T16:01:51;6.77;;;4.60;;
11539;SDS011;5826;54.756;9.192;2022-12-07T16:04:17;6.10;;;4.30;;
11539;SDS011;5826;54.756;9.192;2022-12-07T16:06:43;5.53;;;4.23;;
11539;SDS011;5826;54.756;9.192;2022-12-07T16:09:09;6.20;;;4.60;;
11539;SDS011;5826;54.756;9.192;2022-12-07T16:11:35;8.10;;;4.87;;
11539;SDS011;5826;54.756;9.192;2022-12-07T16:14:00;8.60;;;5.50;;
11539;SDS011;5826;54.756;9.192;2022-12-07T16:16:26;10.63;;;7.20;;
11539;SDS011;5826;54.756;9.192;2022-12-07T16:18:52;13.03;;;8.97;;
11539;SDS011;5826;54.756;9.192;2022-12-07T16:21:17;15.70;;;10.43;;
11539;SDS011;5826;54.756;9.192;2022-12-07T16:23:43;15.87;;;11.07;;
11539;SDS011;5826;54.756;9.192;2022-12-07T16:26:13;17.27;;;11.63;;
11539;SDS011;5826;54.756;9.192;2022-12-07T16:28:40;14.33;;;10.43;;
11539;SDS011;5826;54.756;9.192;2022-12-07T16:31:14;10.47;;;9.27;;
11539;SDS011;5826;54.756;9.192;2022-12-07T16:33:41;9.87;;;8.43;;
11539;SDS011;5826;54.756;9.192;2022-12-07T16:36:08;10.83;;;8.50;;
11539;SDS011;5826;54.756;9.192;2022-12-07T16:38:35;10.13;;;8.23;;
11539;SDS011;5826;54.756;9.192;2022-12-07T16:41:01;11.20;;;8.50;;
11539;SDS011;5826;54.756;9.192;2022-12-07T16:43:27;10.60;;;8.13;;
11539;SDS011;5826;54.756;9.192;2022-12-07T16:45:52;12.10;;;9.13;;
11539;SDS011;5826;54.756;9.192;2022-12-07T16:48:18;10.93;;;8.07;;
11539;SDS011;5826;54.756;9.192;2022-12-07T16:50:44;9.40;;;7.07;;
11539;SDS011;5826;54.756;9.192;2022-12-07T16:53:11;11.83;;;7.63;;
11539;SDS011;5826;54.756;9.192;2022-12-07T16:55:38;9.77;;;7.57;;
11539;SDS011;5826;54.756;9.192;2022-12-07T16:58:05;10.13;;;7.90;;
11539;SDS011;5826;54.756;9.192;2022-12-07T17:00:32;11.30;;;8.10;;
11539;SDS011;5826;54.756;9.192;2022-12-07T17:02:58;10.43;;;8.43;;
11539;SDS011;5826;54.756;9.192;2022-12-07T17:05:23;9.57;;;8.10;;
11539;SDS011;5826;54.756;9.192;2022-12-07T17:07:50;10.33;;;8.07;;
11539;SDS011;5826;54.756;9.192;2022-12-07T17:10:16;11.33;;;7.63;;